createdAt,value
2018-01-29T00:00:21.970Z,7.17
2018-01-29T00:02:51.610Z,4.97
2018-01-29T00:05:21.022Z,6.40
2018-01-29T00:07:53.229Z,6.83
2018-01-29T00:10:22.719Z,4.70
2018-01-29T00:12:51.357Z,4.40
2018-01-29T00:15:21.120Z,4.40
2018-01-29T00:17:50.631Z,3.60
2018-01-29T00:20:20.701Z,3.77
2018-01-29T00:22:50.283Z,5.43
2018-01-29T00:25:19.088Z,3.80
2018-01-29T00:27:48.824Z,5.67
2018-01-29T00:30:18.305Z,3.50
2018-01-29T00:32:47.893Z,4.30
2018-01-29T00:35:17.629Z,3.00
2018-01-29T00:37:47.425Z,2.97
2018-01-29T00:40:17.697Z,3.50
2018-01-29T00:42:46.980Z,3.47
2018-01-29T00:45:16.813Z,4.23
2018-01-29T00:47:47.358Z,3.80
2018-01-29T00:50:17.260Z,5.13
2018-01-29T00:52:46.895Z,5.97
2018-01-29T00:55:16.761Z,6.13
2018-01-29T00:57:46.035Z,4.33
2018-01-29T01:00:15.333Z,5.07
2018-01-29T01:02:45.027Z,2.03
2018-01-29T01:05:15.132Z,1.77
2018-01-29T01:07:45.309Z,1.80
2018-01-29T01:10:14.756Z,1.73
2018-01-29T01:12:45.131Z,1.87
2018-01-29T01:15:14.539Z,1.50
2018-01-29T01:17:43.824Z,1.70
2018-01-29T01:20:13.460Z,1.30
2018-01-29T01:22:42.766Z,2.27
2018-01-29T01:25:12.055Z,2.03
2018-01-29T01:27:41.652Z,1.97
2018-01-29T01:30:11.362Z,1.90
2018-01-29T01:32:41.365Z,2.73
2018-01-29T01:35:10.666Z,1.90
2018-01-29T01:37:39.942Z,2.00
2018-01-29T01:40:10.038Z,2.63
2018-01-29T01:42:39.355Z,1.83
2018-01-29T01:45:09.390Z,2.10
2018-01-29T01:47:39.452Z,2.23
2018-01-29T01:50:08.718Z,1.97
2018-01-29T01:52:37.980Z,2.97
2018-01-29T01:55:07.280Z,2.67
2018-01-29T01:57:36.571Z,1.70
2018-01-29T02:00:05.637Z,2.50
2018-01-29T02:02:34.930Z,1.73
2018-01-29T02:05:04.199Z,2.70
2018-01-29T02:07:33.984Z,1.47
2018-01-29T02:10:03.285Z,2.47
2018-01-29T02:12:32.544Z,1.77
2018-01-29T02:15:01.973Z,2.00
2018-01-29T02:17:31.244Z,2.57
2018-01-29T02:20:00.504Z,3.93
2018-01-29T02:22:31.012Z,4.53
2018-01-29T02:25:00.304Z,4.37
2018-01-29T02:27:29.581Z,3.10
2018-01-29T02:29:59.077Z,3.03
2018-01-29T02:32:28.590Z,2.27
2018-01-29T02:34:57.988Z,2.50
2018-01-29T02:37:27.283Z,2.03
2018-01-29T02:39:56.019Z,2.00
2018-01-29T02:42:25.298Z,2.80
2018-01-29T02:44:54.576Z,2.70
2018-01-29T02:47:23.869Z,2.63
2018-01-29T02:49:52.936Z,3.50
2018-01-29T02:52:22.784Z,2.60
2018-01-29T02:54:51.953Z,2.53
2018-01-29T02:57:21.803Z,3.13
2018-01-29T02:59:50.976Z,1.77
2018-01-29T03:02:20.261Z,3.73
2018-01-29T03:04:50.118Z,1.97
2018-01-29T03:07:19.391Z,1.73
2018-01-29T03:09:48.833Z,2.73
2018-01-29T03:12:19.130Z,2.00
2018-01-29T03:14:48.417Z,2.23
2018-01-29T03:17:18.449Z,1.70
2018-01-29T03:19:47.734Z,2.13
2018-01-29T03:22:17.122Z,1.70
2018-01-29T03:24:47.144Z,1.40
2018-01-29T03:27:16.696Z,1.27
2018-01-29T03:29:46.046Z,1.20
2018-01-29T03:32:16.154Z,1.73
2018-01-29T03:34:46.224Z,1.90
2018-01-29T03:37:15.566Z,1.27
2018-01-29T03:39:44.864Z,1.20
2018-01-29T03:42:14.175Z,1.07
2018-01-29T03:44:44.036Z,2.03
2018-01-29T03:47:13.342Z,1.53
2018-01-29T03:49:42.426Z,4.60
2018-01-29T03:52:11.966Z,1.27
2018-01-29T03:54:41.263Z,1.43
2018-01-29T03:57:10.570Z,1.10
2018-01-29T03:59:39.870Z,1.10
2018-01-29T04:02:09.164Z,2.50
2018-01-29T04:04:38.433Z,1.07
2018-01-29T04:07:07.687Z,1.17
2018-01-29T04:09:36.983Z,1.13
2018-01-29T04:12:06.266Z,1.17
2018-01-29T04:14:35.543Z,1.13
2018-01-29T04:17:05.053Z,0.97
2018-01-29T04:19:34.320Z,1.37
2018-01-29T04:22:04.386Z,0.90
2018-01-29T04:24:33.686Z,1.80
2018-01-29T04:27:02.958Z,1.10
2018-01-29T04:29:32.230Z,1.10
2018-01-29T04:32:01.657Z,2.00
2018-01-29T04:34:31.084Z,1.40
2018-01-29T04:37:00.370Z,2.57
2018-01-29T04:39:29.845Z,1.53
2018-01-29T04:41:59.904Z,2.37
2018-01-29T04:44:28.996Z,2.70
2018-01-29T04:46:58.242Z,1.40
2018-01-29T04:49:27.570Z,2.10
2018-01-29T04:51:57.604Z,2.47
2018-01-29T04:54:26.917Z,1.80
2018-01-29T04:56:56.202Z,2.03
2018-01-29T04:59:26.241Z,2.00
2018-01-29T05:01:55.755Z,2.17
2018-01-29T05:04:25.040Z,3.13
2018-01-29T05:06:54.316Z,2.53
2018-01-29T05:09:23.635Z,2.87
2018-01-29T05:11:52.918Z,3.60
2018-01-29T05:14:23.250Z,1.40
2018-01-29T05:16:53.291Z,3.70
2018-01-29T05:19:22.655Z,1.77
2018-01-29T05:21:52.684Z,1.80
2018-01-29T05:24:22.758Z,3.43
2018-01-29T05:26:52.078Z,4.40
2018-01-29T05:29:21.341Z,2.03
2018-01-29T05:31:51.098Z,2.90
2018-01-29T05:34:20.204Z,4.13
2018-01-29T05:37:03.192Z,1.37
2018-01-29T05:39:32.260Z,4.30
2018-01-29T05:42:01.346Z,2.30
2018-01-29T05:44:30.453Z,1.50
2018-01-29T05:46:59.838Z,2.43
2018-01-29T05:49:29.117Z,1.90
2018-01-29T05:51:58.980Z,2.10
2018-01-29T05:54:28.139Z,3.13
2018-01-29T05:56:57.996Z,5.07
2018-01-29T05:59:27.277Z,5.23
2018-01-29T06:01:56.376Z,3.63
2018-01-29T06:04:25.458Z,2.90
2018-01-29T06:06:54.756Z,3.57
2018-01-29T06:09:24.034Z,5.00
2018-01-29T06:11:54.099Z,6.20
2018-01-29T06:14:23.380Z,5.37
2018-01-29T06:16:52.967Z,9.13
2018-01-29T06:19:23.453Z,8.17
2018-01-29T06:21:52.940Z,13.57
2018-01-29T06:24:22.404Z,5.60
2018-01-29T06:26:52.494Z,6.73
2018-01-29T06:29:21.777Z,6.57
2018-01-29T06:31:51.138Z,5.17
2018-01-29T06:34:19.713Z,6.77
2018-01-29T06:36:49.876Z,6.00
2018-01-29T06:39:19.167Z,5.60
2018-01-29T06:41:48.518Z,6.57
2018-01-29T06:44:17.800Z,5.20
2018-01-29T06:46:47.097Z,5.17
2018-01-29T06:49:16.380Z,5.43
2018-01-29T06:51:45.664Z,7.17
2018-01-29T06:54:15.002Z,4.90
2018-01-29T06:56:44.415Z,9.47
2018-01-29T06:59:13.690Z,6.67
2018-01-29T07:01:42.998Z,7.07
2018-01-29T07:04:12.306Z,5.10
2018-01-29T07:06:41.592Z,6.23
2018-01-29T07:09:10.898Z,9.43
2018-01-29T07:11:40.208Z,9.30
2018-01-29T07:14:09.540Z,9.40
2018-01-29T07:16:39.796Z,9.87
2018-01-29T07:19:09.313Z,9.90
2018-01-29T07:21:38.691Z,14.67
2018-01-29T07:24:08.063Z,8.93
2018-01-29T07:26:38.852Z,9.20
2018-01-29T07:29:08.214Z,9.87
2018-01-29T07:31:38.254Z,9.67
2018-01-29T07:34:07.521Z,8.70
2018-01-29T07:36:37.110Z,9.80
2018-01-29T07:39:05.670Z,10.73
2018-01-29T07:41:34.956Z,10.63
2018-01-29T07:44:04.221Z,7.30
2018-01-29T07:46:34.265Z,9.43
2018-01-29T07:49:04.498Z,7.57
2018-01-29T07:51:33.793Z,8.40
2018-01-29T07:54:03.214Z,11.10
2018-01-29T07:56:32.496Z,11.13
2018-01-29T07:59:01.792Z,13.83
2018-01-29T08:01:31.211Z,11.00
2018-01-29T08:04:00.506Z,12.90
2018-01-29T08:06:29.769Z,10.20
2018-01-29T08:09:00.024Z,14.00
2018-01-29T08:11:29.460Z,10.63
2018-01-29T08:13:58.746Z,10.63
2018-01-29T08:16:28.030Z,10.93
2018-01-29T08:18:57.315Z,10.83
2018-01-29T08:21:27.592Z,11.57
2018-01-29T08:23:56.866Z,9.77
2018-01-29T08:26:26.130Z,10.73
2018-01-29T08:28:56.184Z,8.37
2018-01-29T08:31:25.453Z,8.30
2018-01-29T08:33:55.507Z,10.13
2018-01-29T08:36:25.802Z,8.77
2018-01-29T08:38:55.080Z,7.13
2018-01-29T08:41:24.416Z,8.00
2018-01-29T08:43:53.704Z,5.43
2018-01-29T08:46:23.010Z,7.67
2018-01-29T08:48:52.304Z,12.00
2018-01-29T08:51:21.592Z,10.40
2018-01-29T08:53:51.770Z,8.40
2018-01-29T08:56:21.343Z,7.23
2018-01-29T08:58:50.820Z,10.77
2018-01-29T09:01:20.942Z,9.43
2018-01-29T09:03:50.976Z,8.00
2018-01-29T09:06:20.271Z,10.23
2018-01-29T09:08:50.313Z,10.27
2018-01-29T09:11:19.733Z,10.73
2018-01-29T09:13:49.114Z,9.20
2018-01-29T09:16:18.404Z,9.87
2018-01-29T09:18:47.662Z,9.63
2018-01-29T09:21:16.957Z,9.57
2018-01-29T09:23:46.246Z,4.63
2018-01-29T09:26:15.520Z,5.87
2018-01-29T09:28:44.806Z,5.13
2018-01-29T09:31:14.101Z,7.97
2018-01-29T09:33:44.054Z,10.70
2018-01-29T09:36:14.253Z,10.20
2018-01-29T09:38:43.743Z,6.97
2018-01-29T09:41:13.012Z,7.00
2018-01-29T09:43:42.292Z,7.83
2018-01-29T09:46:11.573Z,7.77
2018-01-29T09:48:40.683Z,9.07
2018-01-29T09:51:09.978Z,5.77
2018-01-29T09:53:39.258Z,6.73
2018-01-29T09:56:08.531Z,7.87
2018-01-29T09:58:38.602Z,8.40
2018-01-29T10:01:07.897Z,9.20
2018-01-29T10:03:37.185Z,7.47
2018-01-29T10:06:06.457Z,7.47
2018-01-29T10:08:36.502Z,8.67
2018-01-29T10:11:05.782Z,9.30
2018-01-29T10:13:35.907Z,6.27
2018-01-29T10:16:05.385Z,5.63
2018-01-29T10:18:35.441Z,7.57
2018-01-29T10:21:04.728Z,7.30
2018-01-29T10:23:34.007Z,5.50
2018-01-29T10:26:04.576Z,4.90
2018-01-29T10:28:33.851Z,4.47
2018-01-29T10:31:03.137Z,6.90
2018-01-29T10:33:33.319Z,9.47
2018-01-29T10:36:02.593Z,4.33
2018-01-29T10:38:31.861Z,4.20
2018-01-29T10:41:01.920Z,6.97
2018-01-29T10:43:31.757Z,4.33
2018-01-29T10:46:01.044Z,9.00
2018-01-29T10:48:30.053Z,4.80
2018-01-29T10:50:59.325Z,4.23
2018-01-29T10:53:28.584Z,4.93
2018-01-29T10:55:58.653Z,9.30
2018-01-29T10:58:27.914Z,4.83
2018-01-29T11:01:03.271Z,6.07
2018-01-29T11:03:32.797Z,5.07
2018-01-29T11:06:02.174Z,4.40
2018-01-29T11:08:32.522Z,4.33
2018-01-29T11:11:01.813Z,2.43
2018-01-29T11:13:31.080Z,5.00
2018-01-29T11:16:01.112Z,2.87
2018-01-29T11:18:31.140Z,4.67
2018-01-29T11:21:00.535Z,4.90
2018-01-29T11:23:30.570Z,4.03
2018-01-29T11:25:59.841Z,4.23
2018-01-29T11:28:29.879Z,7.23
2018-01-29T11:31:00.120Z,4.07
2018-01-29T11:33:29.381Z,5.20
2018-01-29T11:35:59.699Z,4.50
2018-01-29T11:38:29.732Z,5.03
2018-01-29T11:41:00.104Z,5.20
2018-01-29T11:43:29.629Z,6.23
2018-01-29T11:45:58.925Z,5.87
2018-01-29T11:48:28.500Z,10.07
2018-01-29T11:50:57.874Z,3.10
2018-01-29T11:53:27.202Z,6.97
2018-01-29T11:55:56.538Z,5.83
2018-01-29T11:58:25.817Z,6.43
2018-01-29T12:00:55.125Z,4.73
2018-01-29T12:03:24.468Z,4.37
2018-01-29T12:05:53.752Z,4.67
2018-01-29T12:08:23.026Z,4.67
2018-01-29T12:10:52.302Z,4.37
2018-01-29T12:13:21.627Z,5.77
2018-01-29T12:15:50.925Z,3.60
2018-01-29T12:18:20.214Z,3.50
2018-01-29T12:20:49.578Z,5.10
2018-01-29T12:23:19.658Z,2.13
2018-01-29T12:25:48.936Z,3.83
2018-01-29T12:28:18.274Z,2.23
2018-01-29T12:30:47.516Z,3.13
2018-01-29T12:33:16.847Z,3.07
2018-01-29T12:35:46.478Z,5.63
2018-01-29T12:38:15.754Z,3.67
2018-01-29T12:40:45.102Z,4.27
2018-01-29T12:43:15.146Z,5.73
2018-01-29T12:45:45.298Z,5.80
2018-01-29T12:48:14.808Z,3.63
2018-01-29T12:50:44.304Z,3.50
2018-01-29T12:53:13.584Z,9.67
2018-01-29T12:55:42.249Z,2.03
2018-01-29T12:58:12.057Z,4.80
2018-01-29T13:00:42.421Z,10.27
2018-01-29T13:03:11.961Z,3.53
2018-01-29T13:05:41.239Z,4.53
2018-01-29T13:08:10.716Z,4.00
2018-01-29T13:10:40.238Z,3.93
2018-01-29T13:13:09.591Z,5.33
2018-01-29T13:15:39.105Z,4.87
2018-01-29T13:18:08.975Z,4.80
2018-01-29T13:20:38.958Z,6.93
2018-01-29T13:23:08.503Z,7.33
2018-01-29T13:25:37.922Z,6.07
2018-01-29T13:28:07.363Z,6.90
2018-01-29T13:30:36.109Z,5.40
2018-01-29T13:33:05.393Z,8.27
2018-01-29T13:35:34.711Z,5.77
2018-01-29T13:38:04.641Z,5.97
2018-01-29T13:40:34.077Z,8.33
2018-01-29T13:43:04.014Z,8.07
2018-01-29T13:45:33.345Z,6.97
2018-01-29T13:48:02.804Z,6.50
2018-01-29T13:50:32.223Z,7.37
2018-01-29T13:53:01.661Z,6.20
2018-01-29T13:55:31.579Z,4.87
2018-01-29T13:58:01.094Z,7.70
2018-01-29T14:00:30.997Z,5.27
2018-01-29T14:03:00.506Z,5.27
2018-01-29T14:05:29.790Z,7.40
2018-01-29T14:07:59.208Z,5.90
2018-01-29T14:10:28.482Z,5.03
2018-01-29T14:12:57.571Z,7.90
2018-01-29T14:15:26.878Z,8.93
2018-01-29T14:17:56.198Z,8.20
2018-01-29T14:20:25.707Z,6.97
2018-01-29T14:22:55.015Z,5.80
2018-01-29T14:25:24.341Z,9.00
2018-01-29T14:27:54.381Z,6.97
2018-01-29T14:30:23.811Z,7.33
2018-01-29T14:32:53.087Z,7.53
2018-01-29T14:35:22.716Z,6.27
2018-01-29T14:37:52.127Z,6.70
2018-01-29T14:40:21.700Z,6.27
2018-01-29T14:42:51.228Z,6.17
2018-01-29T14:45:20.828Z,5.73
2018-01-29T14:47:50.098Z,5.43
2018-01-29T14:50:20.672Z,9.53
2018-01-29T14:52:49.887Z,7.33
2018-01-29T14:55:19.335Z,7.57
2018-01-29T14:57:48.683Z,8.13
2018-01-29T15:00:19.180Z,6.73
2018-01-29T15:02:48.468Z,8.43
2018-01-29T15:05:18.681Z,5.60
2018-01-29T15:07:48.980Z,5.33
2018-01-29T15:10:18.301Z,6.07
2018-01-29T15:12:48.372Z,4.03
2018-01-29T15:15:18.004Z,3.53
2018-01-29T15:17:47.756Z,6.53
2018-01-29T15:20:17.274Z,5.20
2018-01-29T15:22:46.735Z,5.50
2018-01-29T15:25:16.197Z,5.23
2018-01-29T15:27:46.432Z,9.40
2018-01-29T15:30:15.712Z,5.23
2018-01-29T15:32:45.243Z,7.03
2018-01-29T15:35:14.623Z,9.73
2018-01-29T15:37:44.406Z,7.60
2018-01-29T15:40:14.867Z,6.77
2018-01-29T15:42:44.258Z,5.87
2018-01-29T15:45:13.724Z,10.30
2018-01-29T15:47:43.106Z,6.83
2018-01-29T15:50:12.378Z,5.63
2018-01-29T15:52:41.902Z,4.97
2018-01-29T15:55:11.165Z,7.70
2018-01-29T15:57:41.335Z,4.63
2018-01-29T16:00:12.775Z,5.63
2018-01-29T16:02:42.986Z,6.77
2018-01-29T16:05:12.641Z,5.97
2018-01-29T16:07:42.636Z,5.00
2018-01-29T16:10:12.164Z,7.10
2018-01-29T16:12:43.993Z,5.47
2018-01-29T16:15:13.272Z,7.97
2018-01-29T16:17:42.831Z,7.83
2018-01-29T16:20:12.401Z,5.57
2018-01-29T16:22:42.016Z,7.23
2018-01-29T16:25:11.818Z,5.83
2018-01-29T16:27:41.138Z,8.33
2018-01-29T16:30:10.525Z,6.17
2018-01-29T16:32:39.790Z,8.00
2018-01-29T16:35:09.834Z,6.87
2018-01-29T16:37:39.142Z,8.70
2018-01-29T16:40:08.422Z,10.90
2018-01-29T16:42:37.740Z,6.17
2018-01-29T16:45:07.517Z,8.37
2018-01-29T16:47:36.862Z,6.63
2018-01-29T16:50:07.067Z,5.87
2018-01-29T16:52:36.546Z,6.30
2018-01-29T16:55:07.068Z,8.70
2018-01-29T16:57:36.816Z,8.67
2018-01-29T17:00:06.365Z,5.80
2018-01-29T17:02:36.441Z,7.53
2018-01-29T17:05:05.848Z,6.43
2018-01-29T17:07:35.180Z,6.00
2018-01-29T17:10:04.489Z,7.03
2018-01-29T17:12:33.954Z,6.20
2018-01-29T17:15:03.468Z,5.57
2018-01-29T17:17:32.937Z,12.20
2018-01-29T17:20:02.298Z,7.37
2018-01-29T17:22:31.597Z,7.00
2018-01-29T17:25:00.937Z,10.80
2018-01-29T17:27:31.431Z,7.83
2018-01-29T17:30:01.685Z,6.97
2018-01-29T17:32:31.779Z,5.43
2018-01-29T17:35:01.600Z,4.00
2018-01-29T17:37:31.778Z,4.43
2018-01-29T17:40:01.167Z,6.03
2018-01-29T17:42:30.628Z,3.90
2018-01-29T17:45:01.013Z,4.27
2018-01-29T17:47:30.587Z,7.70
2018-01-29T17:50:00.644Z,5.90
2018-01-29T17:52:30.236Z,4.03
2018-01-29T17:54:59.573Z,4.50
2018-01-29T17:57:29.055Z,5.63
2018-01-29T17:59:58.342Z,6.83
2018-01-29T18:02:27.856Z,4.53
2018-01-29T18:04:57.130Z,5.87
2018-01-29T18:07:27.402Z,5.97
2018-01-29T18:09:56.902Z,6.63
2018-01-29T18:12:26.343Z,4.37
2018-01-29T18:14:55.723Z,3.40
2018-01-29T18:17:25.055Z,5.93
2018-01-29T18:19:55.298Z,3.83
2018-01-29T18:22:26.665Z,3.13
2018-01-29T18:24:56.071Z,4.40
2018-01-29T18:27:25.498Z,2.70
2018-01-29T18:29:54.790Z,6.90
2018-01-29T18:32:24.060Z,2.97
2018-01-29T18:34:54.291Z,5.43
2018-01-29T18:37:23.770Z,4.63
2018-01-29T18:39:54.688Z,3.20
2018-01-29T18:42:27.507Z,4.07
2018-01-29T18:44:58.253Z,4.50
2018-01-29T18:47:28.475Z,5.20
2018-01-29T18:49:58.214Z,6.47
2018-01-29T18:52:27.573Z,5.07
2018-01-29T18:54:56.896Z,6.37
2018-01-29T18:57:26.216Z,4.53
2018-01-29T18:59:56.254Z,3.33
2018-01-29T19:02:26.668Z,3.50
2018-01-29T19:04:56.181Z,10.30
2018-01-29T19:07:25.869Z,4.80
2018-01-29T19:09:55.224Z,5.10
2018-01-29T19:12:37.896Z,6.07
2018-01-29T19:15:09.474Z,5.07
2018-01-29T19:17:39.193Z,3.70
2018-01-29T19:20:08.716Z,3.97
2018-01-29T19:22:38.786Z,3.60
2018-01-29T19:25:08.095Z,5.83
2018-01-29T19:31:56.104Z,3.63
2018-01-29T19:34:45.421Z,4.17
2018-01-29T19:37:15.986Z,4.47
2018-01-29T19:39:45.708Z,8.87
2018-01-29T19:42:15.178Z,3.10
2018-01-29T19:44:44.828Z,4.37
2018-01-29T19:47:14.915Z,4.67
2018-01-29T19:49:44.191Z,6.67
2018-01-29T19:52:13.481Z,2.87
2018-01-29T19:54:42.868Z,5.17
2018-01-29T19:57:12.930Z,3.70
2018-01-29T19:59:42.209Z,5.43
2018-01-29T20:02:11.577Z,3.77
2018-01-29T20:04:41.654Z,2.57
2018-01-29T20:07:11.233Z,2.57
2018-01-29T20:09:41.754Z,2.80
2018-01-29T20:12:11.034Z,1.93
2018-01-29T20:14:41.395Z,2.43
2018-01-29T20:17:10.940Z,2.60
2018-01-29T20:19:43.380Z,3.77
2018-01-29T20:22:12.780Z,4.47
2018-01-29T20:24:42.299Z,6.60
2018-01-29T20:27:11.621Z,3.80
2018-01-29T20:29:40.922Z,2.43
2018-01-29T20:32:09.784Z,5.53
2018-01-29T20:34:39.070Z,2.83
2018-01-29T20:37:08.706Z,3.00
2018-01-29T20:39:37.993Z,3.60
2018-01-29T20:42:07.090Z,5.80
2018-01-29T20:44:36.520Z,5.17
2018-01-29T20:47:06.135Z,5.30
2018-01-29T20:49:35.628Z,5.53
2018-01-29T20:52:04.911Z,6.43
2018-01-29T20:54:34.216Z,5.13
2018-01-29T20:57:03.504Z,5.87
2018-01-29T20:59:32.796Z,4.73
2018-01-29T21:02:02.078Z,5.70
2018-01-29T21:04:32.220Z,4.30
2018-01-29T21:07:01.642Z,4.97
2018-01-29T21:09:30.934Z,10.30
2018-01-29T21:12:00.198Z,5.30
2018-01-29T21:14:30.469Z,3.60
2018-01-29T21:16:59.756Z,3.83
2018-01-29T21:19:29.051Z,2.80
2018-01-29T21:21:58.472Z,5.70
2018-01-29T21:24:27.924Z,4.47
2018-01-29T21:26:59.435Z,4.17
2018-01-29T21:29:28.758Z,6.10
2018-01-29T21:31:58.156Z,4.33
2018-01-29T21:34:27.745Z,6.00
2018-01-29T21:36:57.883Z,7.33
2018-01-29T21:39:27.364Z,5.63
2018-01-29T21:41:56.673Z,4.17
2018-01-29T21:44:26.182Z,6.17
2018-01-29T21:46:55.826Z,7.83
2018-01-29T21:49:26.102Z,6.07
2018-01-29T21:51:55.418Z,5.77
2018-01-29T21:54:24.754Z,5.97
2018-01-29T21:56:54.793Z,4.60
2018-01-29T21:59:24.054Z,4.20
2018-01-29T22:01:53.450Z,8.37
2018-01-29T22:04:22.846Z,5.93
2018-01-29T22:06:52.283Z,3.97
2018-01-29T22:09:22.476Z,6.13
2018-01-29T22:11:51.881Z,7.90
2018-01-29T22:14:21.257Z,6.30
2018-01-29T22:16:50.610Z,10.30
2018-01-29T22:19:20.931Z,8.97
2018-01-29T22:21:50.216Z,9.77
2018-01-29T22:24:19.830Z,8.33
2018-01-29T22:26:49.403Z,8.43
2018-01-29T22:29:29.660Z,6.47
2018-01-29T22:31:58.210Z,7.30
2018-01-29T22:34:27.598Z,9.47
2018-01-29T22:36:57.760Z,5.63
2018-01-29T22:39:27.082Z,8.93
2018-01-29T22:41:56.358Z,6.40
2018-01-29T22:44:26.480Z,8.03
2018-01-29T22:46:57.242Z,5.07
2018-01-29T22:49:27.428Z,7.37
2018-01-29T22:51:58.396Z,9.33
2018-01-29T22:54:30.030Z,12.43
2018-01-29T22:57:00.799Z,11.43
2018-01-29T22:59:30.367Z,9.00
2018-01-29T23:02:00.119Z,7.10
2018-01-29T23:04:32.275Z,6.37
2018-01-29T23:07:02.022Z,13.13
2018-01-29T23:09:31.450Z,6.03
2018-01-29T23:12:01.690Z,5.90
2018-01-29T23:14:31.950Z,9.87
2018-01-29T23:17:01.216Z,9.10
2018-01-29T23:19:31.461Z,9.43
2018-01-29T23:22:01.758Z,5.83
2018-01-29T23:24:31.816Z,10.00
2018-01-29T23:27:01.230Z,7.37
2018-01-29T23:29:30.492Z,7.60
2018-01-29T23:32:00.642Z,6.13
2018-01-29T23:34:33.843Z,7.27
2018-01-29T23:37:03.193Z,4.50
2018-01-29T23:39:39.370Z,6.80
2018-01-29T23:42:09.477Z,6.67
2018-01-29T23:44:39.962Z,9.03
2018-01-29T23:47:09.228Z,8.60
2018-01-29T23:50:05.767Z,11.00
2018-01-29T23:52:43.187Z,9.03
2018-01-29T23:55:12.467Z,15.73
2018-01-29T23:57:41.740Z,9.70
